createdAt,value
2018-10-05T00:05:53.352Z,90.77
2018-10-05T00:11:58.449Z,90.96
2018-10-05T00:18:03.118Z,91.57
2018-10-05T00:24:07.842Z,91.75
2018-10-05T00:30:12.512Z,91.88
2018-10-05T00:36:17.328Z,91.58
2018-10-05T00:42:22.155Z,92.26
2018-10-05T00:48:26.880Z,93.02
2018-10-05T00:54:31.508Z,92.92
2018-10-05T01:00:36.184Z,92.58
2018-10-05T01:06:40.957Z,91.84
2018-10-05T01:12:45.628Z,92.47
2018-10-05T01:18:50.334Z,92.57
2018-10-05T01:24:55.009Z,92.26
2018-10-05T01:30:59.989Z,92.86
2018-10-05T01:37:04.567Z,92.67
2018-10-05T01:43:09.152Z,92.42
2018-10-05T01:49:13.802Z,93.32
2018-10-05T01:55:18.440Z,93.39
2018-10-05T02:01:23.951Z,92.97
2018-10-05T02:07:28.578Z,92.59
2018-10-05T02:13:33.194Z,92.74
2018-10-05T02:19:37.787Z,93.93
2018-10-05T02:25:42.460Z,93.30
2018-10-05T02:31:47.058Z,91.57
2018-10-05T02:37:51.977Z,92.79
2018-10-05T02:43:56.941Z,92.98
2018-10-05T02:50:01.897Z,92.51
2018-10-05T02:56:06.888Z,93.78
2018-10-05T03:02:34.049Z,93.52
2018-10-05T03:08:38.715Z,93.59
2018-10-05T03:14:44.506Z,93.66
2018-10-05T03:20:49.170Z,93.71
2018-10-05T03:26:53.789Z,93.21
2018-10-05T03:32:58.420Z,92.37
2018-10-05T03:39:03.177Z,93.20
2018-10-05T03:45:07.898Z,93.66
2018-10-05T03:51:12.970Z,93.54
2018-10-05T03:57:17.607Z,93.35
2018-10-05T04:03:22.243Z,93.53
2018-10-05T04:09:26.934Z,93.24
2018-10-05T04:15:31.644Z,93.56
2018-10-05T04:21:36.313Z,93.24
2018-10-05T04:27:41.248Z,93.02
2018-10-05T04:33:45.843Z,93.64
2018-10-05T04:39:50.848Z,93.58
2018-10-05T04:45:56.367Z,93.02
2018-10-05T04:52:01.098Z,94.16
2018-10-05T04:58:05.758Z,94.46
2018-10-05T05:04:10.393Z,93.87
2018-10-05T05:10:15.005Z,94.06
2018-10-05T05:16:19.644Z,93.73
2018-10-05T05:22:24.307Z,93.70
2018-10-05T05:28:28.919Z,94.34
2018-10-05T05:34:33.521Z,94.15
2018-10-05T05:40:38.192Z,93.79
2018-10-05T05:46:42.805Z,93.60
2018-10-05T05:52:47.812Z,93.35
2018-10-05T05:58:52.450Z,93.43
2018-10-05T06:04:57.116Z,93.67
2018-10-05T06:11:01.789Z,93.86
2018-10-05T06:17:06.477Z,93.81
2018-10-05T06:23:11.397Z,93.40
2018-10-05T06:29:16.378Z,93.10
2018-10-05T06:35:21.410Z,92.22
2018-10-05T06:41:26.054Z,91.96
2018-10-05T06:47:30.751Z,91.67
2018-10-05T06:53:35.367Z,91.34
2018-10-05T06:59:40.026Z,90.22
2018-10-05T07:05:44.701Z,91.40
2018-10-05T07:11:49.369Z,90.75
2018-10-05T07:17:54.058Z,90.61
2018-10-05T07:23:58.759Z,89.98
2018-10-05T07:30:03.457Z,89.71
2018-10-05T07:36:08.386Z,89.22
2018-10-05T07:42:13.093Z,89.90
2018-10-05T07:48:17.834Z,88.51
2018-10-05T07:54:22.833Z,89.28
2018-10-05T08:00:28.048Z,88.82
2018-10-05T08:06:33.262Z,88.45
2018-10-05T08:12:38.071Z,87.96
2018-10-05T08:18:42.770Z,88.33
2018-10-05T08:24:47.766Z,87.24
2018-10-05T08:30:52.455Z,87.49
2018-10-05T08:36:57.131Z,87.87
2018-10-05T08:43:01.760Z,87.51
2018-10-05T08:49:06.870Z,85.14
2018-10-05T08:55:11.496Z,83.16
2018-10-05T09:01:16.147Z,82.96
2018-10-05T09:07:21.182Z,80.80
2018-10-05T09:13:25.836Z,77.39
2018-10-05T09:19:30.442Z,68.20
2018-10-05T09:25:35.106Z,47.90
2018-10-05T09:31:39.737Z,40.46
2018-10-05T09:37:44.406Z,37.55
2018-10-05T09:43:49.022Z,34.79
2018-10-05T09:49:53.611Z,32.13
2018-10-05T09:55:58.561Z,30.39
2018-10-05T10:02:08.355Z,29.91
2018-10-05T10:08:13.124Z,30.85
2018-10-05T10:14:18.158Z,36.73
2018-10-05T10:20:22.762Z,41.90
2018-10-05T10:26:27.357Z,45.50
2018-10-05T10:32:31.989Z,42.08
2018-10-05T10:38:36.674Z,35.69
2018-10-05T10:44:41.418Z,31.89
2018-10-05T10:50:46.103Z,30.66
2018-10-05T10:56:50.737Z,29.76
2018-10-05T11:02:55.289Z,28.00
2018-10-05T11:08:59.932Z,27.50
2018-10-05T11:15:04.622Z,27.63
2018-10-05T11:21:09.310Z,27.02
2018-10-05T11:27:14.382Z,27.00
2018-10-05T11:33:19.034Z,26.42
2018-10-05T11:39:23.652Z,25.65
2018-10-05T11:45:28.311Z,24.70
2018-10-05T11:51:33.015Z,24.79
2018-10-05T11:57:38.006Z,25.31
2018-10-05T12:03:42.593Z,24.63
2018-10-05T12:09:47.706Z,25.64
2018-10-05T12:15:52.310Z,23.19
2018-10-05T12:21:56.966Z,24.42
2018-10-05T12:28:01.566Z,23.95
2018-10-05T12:34:06.748Z,23.74
2018-10-05T12:40:11.379Z,23.06
2018-10-05T12:46:16.026Z,22.69
2018-10-05T12:52:20.677Z,24.72
2018-10-05T12:58:25.315Z,24.13
2018-10-05T13:04:29.962Z,25.38
2018-10-05T13:10:34.594Z,25.65
2018-10-05T13:16:39.265Z,26.98
2018-10-05T13:22:43.907Z,25.57
2018-10-05T13:28:48.558Z,25.35
2018-10-05T13:34:53.159Z,24.56
2018-10-05T13:40:57.794Z,25.14
2018-10-05T13:47:02.357Z,24.06
2018-10-05T13:53:07.282Z,24.08
2018-10-05T13:59:12.093Z,22.96
2018-10-05T14:05:16.696Z,21.18
2018-10-05T14:11:21.820Z,21.16
2018-10-05T14:17:26.931Z,20.60
2018-10-05T14:23:31.843Z,20.77
2018-10-05T14:29:36.755Z,21.39
2018-10-05T14:35:41.361Z,21.69
2018-10-05T14:41:46.017Z,21.12
2018-10-05T14:47:50.620Z,21.14
2018-10-05T14:53:55.267Z,22.11
2018-10-05T14:59:59.990Z,22.65
2018-10-05T15:06:04.750Z,22.00
2018-10-05T15:12:09.590Z,23.07
2018-10-05T15:18:14.288Z,23.31
2018-10-05T15:24:18.940Z,23.51
2018-10-05T15:30:23.560Z,23.69
2018-10-05T15:36:28.184Z,23.69
2018-10-05T15:42:32.794Z,24.39
2018-10-05T15:48:37.756Z,24.38
2018-10-05T15:54:42.400Z,24.71
2018-10-05T16:00:47.043Z,25.79
2018-10-05T16:06:51.645Z,27.43
2018-10-05T16:12:56.318Z,33.46
2018-10-05T16:19:00.925Z,38.46
2018-10-05T16:25:05.615Z,41.93
2018-10-05T16:31:10.650Z,45.41
2018-10-05T16:37:15.365Z,47.44
2018-10-05T16:43:20.051Z,50.12
2018-10-05T16:49:24.952Z,52.02
2018-10-05T16:55:29.532Z,54.41
2018-10-05T17:01:34.854Z,56.41
2018-10-05T17:07:39.569Z,58.00
2018-10-05T17:13:44.225Z,59.25
2018-10-05T17:19:48.835Z,60.20
2018-10-05T17:25:53.518Z,60.66
2018-10-05T17:31:58.144Z,60.65
2018-10-05T17:38:02.812Z,61.88
2018-10-05T17:44:07.758Z,62.43
2018-10-05T17:50:12.392Z,62.95
2018-10-05T17:56:17.085Z,62.67
2018-10-05T18:02:21.795Z,63.03
2018-10-05T18:08:26.500Z,63.60
2018-10-05T18:14:31.128Z,63.46
2018-10-05T18:20:35.804Z,64.09
2018-10-05T18:26:41.041Z,63.75
2018-10-05T18:32:45.705Z,64.01
2018-10-05T18:38:50.330Z,65.04
2018-10-05T18:44:55.054Z,65.09
2018-10-05T18:51:00.080Z,65.64
2018-10-05T18:57:17.577Z,65.73
2018-10-05T19:03:22.243Z,64.69
2018-10-05T19:09:26.855Z,65.93
2018-10-05T19:15:31.492Z,65.99
2018-10-05T19:21:36.246Z,65.89
2018-10-05T19:27:40.920Z,65.14
2018-10-05T19:33:45.865Z,66.88
2018-10-05T19:39:51.168Z,66.76
2018-10-05T19:45:55.836Z,66.86
2018-10-05T19:52:00.536Z,67.62
2018-10-05T19:58:05.494Z,68.79
2018-10-05T20:04:10.205Z,69.26
2018-10-05T20:10:15.239Z,69.20
2018-10-05T20:16:19.924Z,69.86
2018-10-05T20:22:24.525Z,70.38
2018-10-05T20:28:29.543Z,71.01
2018-10-05T20:34:34.500Z,70.72
2018-10-05T20:40:39.146Z,71.50
2018-10-05T20:46:43.815Z,72.38
2018-10-05T20:52:48.429Z,72.54
2018-10-05T20:58:53.055Z,73.06
2018-10-05T21:04:57.650Z,72.97
2018-10-05T21:11:02.649Z,73.78
2018-10-05T21:17:07.505Z,73.15
2018-10-05T21:23:12.112Z,74.36
2018-10-05T21:29:16.754Z,74.29
2018-10-05T21:35:21.407Z,74.54
2018-10-05T21:41:26.036Z,73.86
2018-10-05T21:47:31.077Z,73.16
2018-10-05T21:53:36.025Z,74.16
2018-10-05T21:59:40.709Z,73.15
2018-10-05T22:05:46.378Z,73.86
2018-10-05T22:11:51.363Z,73.70
2018-10-05T22:17:56.334Z,73.92
2018-10-05T22:24:01.090Z,75.06
2018-10-05T22:30:06.468Z,74.67
2018-10-05T22:36:11.874Z,74.86
2018-10-05T22:42:16.765Z,75.00
2018-10-05T22:48:21.405Z,75.31
2018-10-05T22:54:26.047Z,74.96
2018-10-05T23:00:30.760Z,74.53
2018-10-05T23:06:36.031Z,75.26
2018-10-05T23:12:41.073Z,75.03
2018-10-05T23:18:45.736Z,75.79
2018-10-05T23:24:50.332Z,76.24
2018-10-05T23:30:55.030Z,76.31
2018-10-05T23:36:59.748Z,76.55
2018-10-05T23:43:04.337Z,75.78
2018-10-05T23:49:08.977Z,76.02
2018-10-05T23:55:13.589Z,75.28
